Time;durP1;ratioP1;P1;durP2;ratioP2;P2;SDS_P1;SDS_P2;PMS_P1;PMS_P2;Temp;Humidity;BMP_temperature;BMP_pressure;BME280_temperature;BME280_humidity;BME280_pressure;Samples;Min_cycle;Max_cycle;Signal;HPM_P1;HPM_P2
2023/07/03 00:02:00;;;;;;;18.88;14.85;;;;;;;18.64;77.64;93618.16;5064645;28;20031;-82
2023/07/03 00:04:26;;;;;;;19.38;14.68;;;;;;;18.62;77.76;93611.56;5063590;28;20024;-82
2023/07/03 00:06:52;;;;;;;19.08;14.50;;;;;;;18.55;77.93;93611.50;5064716;28;20092;-81
2023/07/03 00:09:18;;;;;;;22.63;14.27;;;;;;;18.48;78.14;93609.50;5064815;28;20052;-82
2023/07/03 00:11:43;;;;;;;18.63;14.20;;;;;;;18.54;78.43;93609.94;5064736;28;20278;-82
2023/07/03 00:14:09;;;;;;;21.75;14.30;;;;;;;18.54;78.24;93610.75;5064423;28;20082;-82
2023/07/03 00:16:35;;;;;;;22.63;15.25;;;;;;;18.58;78.06;93610.75;5063237;28;20028;-81
2023/07/03 00:19:00;;;;;;;21.15;14.52;;;;;;;18.55;78.17;93614.22;5064314;28;20028;-81
2023/07/03 00:21:26;;;;;;;17.42;13.70;;;;;;;18.50;77.88;93609.13;5064209;28;20017;-81
2023/07/03 00:23:51;;;;;;;19.90;15.00;;;;;;;18.51;78.13;93618.78;5064297;28;20298;-81
2023/07/03 00:26:17;;;;;;;18.63;14.68;;;;;;;18.48;78.16;93609.50;5063933;28;20031;-82
2023/07/03 00:28:42;;;;;;;19.27;14.18;;;;;;;18.48;78.42;93614.91;5064088;28;20025;-81
2023/07/03 00:31:08;;;;;;;23.08;16.40;;;;;;;18.43;78.77;93616.00;5064089;28;20024;-81
2023/07/03 00:33:33;;;;;;;21.67;14.38;;;;;;;18.37;79.06;93612.06;5063963;28;20039;-81
2023/07/03 00:35:59;;;;;;;20.25;14.07;;;;;;;18.38;79.17;93621.72;5063994;28;20040;-81
2023/07/03 00:38:24;;;;;;;20.05;14.82;;;;;;;18.42;78.75;93624.47;5063911;28;20088;-81
2023/07/03 00:40:50;;;;;;;19.48;14.75;;;;;;;18.40;78.85;93614.06;5063875;28;20028;-81
2023/07/03 00:43:15;;;;;;;21.00;15.63;;;;;;;18.45;79.13;93626.44;5062701;28;20037;-81
2023/07/03 00:45:42;;;;;;;24.38;15.70;;;;;;;18.37;79.18;93625.56;5063763;28;20028;-81
2023/07/03 00:48:07;;;;;;;22.20;14.95;;;;;;;18.35;79.69;93621.69;5063840;28;20029;-82
2023/07/03 00:50:34;;;;;;;18.70;14.57;;;;;;;18.43;79.25;93623.31;5063664;28;20090;-82
2023/07/03 00:53:04;;;;;;;19.88;15.57;;;;;;;18.40;79.44;93632.16;5062544;28;20039;-82
2023/07/03 00:55:31;;;;;;;24.67;15.45;;;;;;;18.45;79.40;93634.53;5063554;28;20025;-81
2023/07/03 00:57:57;;;;;;;20.50;16.63;;;;;;;18.47;79.55;93632.22;5062589;28;20025;-82
2023/07/03 01:00:25;;;;;;;21.30;15.13;;;;;;;18.46;79.01;93628.00;5063555;28;20032;-82
2023/07/03 01:03:20;;;;;;;18.85;13.88;;;;;;;18.47;79.35;93626.84;5062474;28;20090;-82
2023/07/03 01:05:49;;;;;;;20.08;15.13;;;;;;;18.48;79.07;93625.72;5063393;28;20035;-80
2023/07/03 01:08:15;;;;;;;24.15;15.65;;;;;;;18.48;78.93;93636.50;5063398;28;20021;-81
2023/07/03 01:10:41;;;;;;;19.98;16.13;;;;;;;18.53;78.71;93627.28;5063082;28;20028;-81
2023/07/03 01:13:12;;;;;;;21.80;16.70;;;;;;;18.56;78.73;93634.63;5063446;28;20093;-81
2023/07/03 01:15:42;;;;;;;20.42;15.60;;;;;;;18.54;78.60;93621.53;5063336;28;20306;-82
2023/07/03 01:18:08;;;;;;;19.83;15.57;;;;;;;18.49;78.75;93629.19;5063389;28;20091;-83
2023/07/03 01:20:51;;;;;;;23.00;16.13;;;;;;;18.56;78.12;93638.13;5063309;28;20094;-82
2023/07/03 01:23:30;;;;;;;20.45;15.98;;;;;;;18.45;78.86;93626.44;5062075;28;20100;-82
2023/07/03 01:25:57;;;;;;;24.58;17.15;;;;;;;18.40;78.77;93629.47;5063470;28;20025;-82
2023/07/03 01:28:24;;;;;;;23.00;16.52;;;;;;;18.33;79.12;93630.13;5063054;28;20013;-82
2023/07/03 01:30:53;;;;;;;23.42;16.40;;;;;;;18.30;79.56;93640.88;5063332;28;20028;-82
2023/07/03 01:33:25;;;;;;;22.00;17.33;;;;;;;18.33;78.94;93632.84;5063105;28;20075;-83
2023/07/03 01:35:52;;;;;;;22.27;16.17;;;;;;;18.37;79.23;93632.88;5063223;28;20031;-83
2023/07/03 01:38:19;;;;;;;24.70;16.77;;;;;;;18.30;79.39;93630.88;5063047;28;20268;-82
2023/07/03 01:40:45;;;;;;;24.13;18.05;;;;;;;18.33;79.25;93632.06;5061711;28;20021;-82
2023/07/03 01:43:12;;;;;;;21.65;17.00;;;;;;;18.31;79.04;93624.34;5063098;28;20032;-82
2023/07/03 01:45:45;;;;;;;21.25;16.33;;;;;;;18.28;78.97;93621.59;5063183;28;20028;-82
2023/07/03 01:48:11;;;;;;;23.27;17.35;;;;;;;18.24;78.94;93630.44;5061796;28;20320;-82
2023/07/03 01:50:38;;;;;;;20.88;16.38;;;;;;;18.18;78.94;93623.81;5062901;28;20064;-81
2023/07/03 01:53:29;;;;;;;22.45;16.85;;;;;;;18.22;79.08;93635.41;5062880;28;20099;-81
2023/07/03 01:56:04;;;;;;;22.85;16.52;;;;;;;18.25;79.30;93633.91;5063084;28;20099;-82
2023/07/03 01:58:47;;;;;;;27.33;18.17;;;;;;;18.24;79.06;93622.34;5062896;28;20048;-81
2023/07/03 02:01:21;;;;;;;26.92;18.48;;;;;;;18.29;78.91;93633.94;5061593;28;20334;-81
2023/07/03 02:03:53;;;;;;;24.25;18.23;;;;;;;18.24;78.96;93637.75;5060722;28;20257;-81
2023/07/03 02:06:21;;;;;;;22.42;17.10;;;;;;;18.23;78.88;93638.88;5062453;28;20013;-82
2023/07/03 02:08:49;;;;;;;22.48;17.83;;;;;;;18.29;79.66;93639.34;5061626;28;20017;-81
2023/07/03 02:11:21;;;;;;;23.27;16.35;;;;;;;18.31;80.27;93645.16;5062491;28;20017;-84
2023/07/03 02:13:47;;;;;;;22.60;15.95;;;;;;;18.35;80.48;93635.19;5062672;28;20024;-82
2023/07/03 02:16:15;;;;;;;22.02;16.10;;;;;;;18.37;80.37;93625.56;5062598;28;20033;-81
2023/07/03 02:18:46;;;;;;;23.92;16.55;;;;;;;18.38;80.16;93631.75;5063046;28;20079;-82
2023/07/03 02:21:13;;;;;;;24.25;15.95;;;;;;;18.41;80.37;93637.19;5062650;28;20044;-82
2023/07/03 02:23:39;;;;;;;19.88;15.15;;;;;;;18.33;80.90;93642.88;5064317;28;20092;-82
2023/07/03 02:26:05;;;;;;;21.05;15.27;;;;;;;18.25;80.76;93648.16;5066824;28;20033;-82
2023/07/03 02:28:31;;;;;;;24.15;15.05;;;;;;;18.33;80.99;93637.47;5066630;28;20336;-82
2023/07/03 02:30:56;;;;;;;21.13;14.95;;;;;;;18.30;80.66;93651.69;5066699;28;20025;-82
2023/07/03 02:33:22;;;;;;;20.33;14.80;;;;;;;18.36;80.55;93655.59;5066952;28;20218;-82
2023/07/03 02:35:47;;;;;;;18.65;14.73;;;;;;;18.39;80.25;93654.88;5066650;28;20029;-82
2023/07/03 02:38:15;;;;;;;21.88;14.88;;;;;;;18.39;80.41;93663.75;5066503;28;20040;-81
2023/07/03 02:40:41;;;;;;;25.23;15.82;;;;;;;18.40;80.85;93662.63;5066586;28;20029;-82
2023/07/03 02:43:08;;;;;;;21.88;14.73;;;;;;;18.39;80.90;93661.06;5066592;28;20225;-81
2023/07/03 02:45:38;;;;;;;24.98;15.77;;;;;;;18.42;81.08;93665.72;5066318;28;20046;-82
2023/07/03 02:48:05;;;;;;;21.80;16.38;;;;;;;18.43;80.96;93663.81;5066408;28;20021;-82
2023/07/03 02:50:33;;;;;;;21.05;15.90;;;;;;;18.43;81.09;93661.88;5066247;28;20097;-83
2023/07/03 02:52:59;;;;;;;20.88;15.68;;;;;;;18.44;80.93;93676.94;5066592;28;20025;-83
2023/07/03 02:55:24;;;;;;;25.90;17.13;;;;;;;18.40;80.99;93667.25;5065392;28;20349;-82
2023/07/03 02:57:50;;;;;;;20.75;16.65;;;;;;;18.41;81.51;93669.56;5066666;28;20024;-82
2023/07/03 03:00:16;;;;;;;22.17;16.52;;;;;;;18.27;82.14;93674.00;5066239;28;20028;-84
2023/07/03 03:02:43;;;;;;;21.70;16.27;;;;;;;18.33;82.28;93672.53;5066541;28;20380;-83
2023/07/03 03:05:09;;;;;;;23.00;16.67;;;;;;;18.36;82.41;93682.59;5066197;28;20032;-84
2023/07/03 03:07:35;;;;;;;22.52;17.00;;;;;;;18.38;81.46;93677.63;5067347;28;20020;-83
2023/07/03 03:10:01;;;;;;;22.00;17.48;;;;;;;18.41;81.27;93671.47;5067154;28;20021;-83
2023/07/03 03:12:27;;;;;;;21.58;15.95;;;;;;;18.38;81.09;93685.72;5066903;28;20024;-82
2023/07/03 03:14:52;;;;;;;22.63;16.70;;;;;;;18.43;81.12;93677.28;5066961;28;20183;-82
2023/07/03 03:17:18;;;;;;;26.35;17.00;;;;;;;18.42;81.01;93670.34;5066752;28;20066;-82
2023/07/03 03:19:44;;;;;;;26.85;16.45;;;;;;;18.46;80.72;93676.56;5064881;28;20460;-82
2023/07/03 03:22:09;;;;;;;24.48;16.92;;;;;;;18.40;81.06;93669.94;5066572;28;20025;-81
2023/07/03 03:24:34;;;;;;;24.25;16.80;;;;;;;18.31;81.34;93675.59;5066416;28;20024;-82
2023/07/03 03:27:05;;;;;;;24.67;17.23;;;;;;;18.38;81.19;93685.72;5064828;28;20062;-81
2023/07/03 03:29:32;;;;;;;22.75;15.95;;;;;;;18.33;81.34;93672.53;5066018;28;20048;-81
2023/07/03 03:31:57;;;;;;;22.73;17.08;;;;;;;18.37;81.44;93671.44;5066498;28;20056;-82
2023/07/03 03:34:22;;;;;;;25.00;17.60;;;;;;;18.28;82.30;93670.94;5065010;28;20314;-82
2023/07/03 03:36:48;;;;;;;23.08;16.92;;;;;;;18.37;81.85;93678.75;5066006;28;20028;-81
2023/07/03 03:39:13;;;;;;;22.77;16.38;;;;;;;18.31;82.31;93682.91;5066710;28;20048;-82
2023/07/03 03:41:39;;;;;;;23.95;17.13;;;;;;;18.28;82.64;93675.53;5066756;28;20200;-81
2023/07/03 03:44:04;;;;;;;25.58;18.63;;;;;;;18.32;83.00;93687.97;5066121;28;20342;-81
2023/07/03 03:46:30;;;;;;;28.27;17.58;;;;;;;18.33;83.14;93700.28;5066051;28;20025;-81
2023/07/03 03:48:55;;;;;;;24.00;17.58;;;;;;;18.33;83.23;93683.31;5066043;28;20376;-81
2023/07/03 03:51:21;;;;;;;28.40;18.33;;;;;;;18.30;82.75;93689.44;5065605;28;20219;-81
2023/07/03 03:53:46;;;;;;;22.67;17.05;;;;;;;18.33;83.17;93689.50;5065863;28;20037;-81
2023/07/03 03:56:11;;;;;;;23.85;17.33;;;;;;;18.37;83.51;93697.63;5065940;28;20078;-81
2023/07/03 03:58:37;;;;;;;28.13;17.98;;;;;;;18.39;82.29;93698.06;5065805;28;20029;-81
2023/07/03 04:01:02;;;;;;;22.52;16.95;;;;;;;18.39;82.65;93698.81;5064782;28;20036;-81
2023/07/03 04:03:28;;;;;;;22.40;16.48;;;;;;;18.42;82.94;93700.81;5065420;28;20337;-80
2023/07/03 04:05:53;;;;;;;25.70;18.02;;;;;;;18.43;82.92;93704.28;5064901;28;20024;-80
2023/07/03 04:08:19;;;;;;;24.60;17.20;;;;;;;18.38;83.30;93691.13;5065519;28;20254;-79
2023/07/03 04:10:44;;;;;;;27.40;17.88;;;;;;;18.34;83.43;93709.94;5065179;28;20021;-80
2023/07/03 04:13:10;;;;;;;26.88;18.55;;;;;;;18.41;83.79;93720.06;5065397;28;20028;-80
2023/07/03 04:15:51;;;;;;;21.92;15.48;;;;;;;18.35;83.94;93713.41;5065231;28;20025;-79
2023/07/03 04:18:17;;;;;;;22.40;15.77;;;;;;;18.41;84.18;93711.97;5065121;28;20024;-80
2023/07/03 04:20:43;;;;;;;21.85;16.00;;;;;;;18.46;83.46;93719.75;5065299;28;20322;-79
2023/07/03 04:23:08;;;;;;;26.33;16.85;;;;;;;18.52;83.37;93720.97;5067001;28;20044;-80
2023/07/03 04:25:34;;;;;;;25.08;17.45;;;;;;;18.50;83.87;93731.38;5067421;28;20375;-80
2023/07/03 04:27:59;;;;;;;23.35;16.85;;;;;;;18.50;83.23;93723.28;5067105;28;20031;-79
2023/07/03 04:30:27;;;;;;;22.48;16.55;;;;;;;18.47;83.37;93728.63;5065856;28;20017;-79
2023/07/03 04:32:54;;;;;;;24.10;15.98;;;;;;;18.52;83.11;93726.38;5064915;28;20021;-80
2023/07/03 04:35:22;;;;;;;26.52;15.95;;;;;;;18.52;83.69;93729.06;5065869;28;20028;-78
2023/07/03 04:37:49;;;;;;;23.63;16.73;;;;;;;18.57;83.58;93733.38;5065532;28;20299;-80
2023/07/03 04:40:16;;;;;;;25.30;16.60;;;;;;;18.65;83.15;93738.47;5067044;28;20067;-79
2023/07/03 04:42:41;;;;;;;23.95;15.63;;;;;;;18.63;82.72;93729.97;5068078;28;20024;-80
2023/07/03 04:45:07;;;;;;;19.73;15.13;;;;;;;18.60;82.52;93730.72;5067805;28;20021;-79
2023/07/03 04:47:33;;;;;;;20.13;14.57;;;;;;;18.60;82.00;93730.72;5065873;28;20130;-80
2023/07/03 04:49:58;;;;;;;22.50;15.43;;;;;;;18.62;82.33;93735.72;5069027;28;20028;-79
2023/07/03 04:52:27;;;;;;;22.20;14.90;;;;;;;18.59;82.35;93742.66;5071403;28;20037;-80
2023/07/03 04:54:53;;;;;;;20.77;15.75;;;;;;;18.61;82.17;93740.34;5070375;28;20033;-80
2023/07/03 04:57:19;;;;;;;23.77;16.20;;;;;;;18.59;82.19;93739.19;5068302;28;20035;-79
2023/07/03 04:59:44;;;;;;;22.60;15.43;;;;;;;18.61;82.40;93745.75;5068092;28;20056;-80
2023/07/03 05:02:12;;;;;;;19.92;14.50;;;;;;;18.72;82.05;93747.81;5067345;28;20222;-80
2023/07/03 05:04:37;;;;;;;27.63;14.95;;;;;;;18.78;81.59;93739.00;5065606;28;20163;-81
2023/07/03 05:07:03;;;;;;;21.25;14.40;;;;;;;18.87;81.78;93746.88;5063870;28;20021;-82
2023/07/03 05:09:29;;;;;;;21.08;14.68;;;;;;;18.96;81.21;93747.34;5063974;28;20091;-82
2023/07/03 05:11:55;;;;;;;21.23;14.20;;;;;;;19.07;80.95;93746.69;5063583;28;20334;-81
2023/07/03 05:14:20;;;;;;;19.15;13.32;;;;;;;19.14;80.73;93749.50;5063581;28;20029;-81
2023/07/03 05:16:46;;;;;;;22.40;13.48;;;;;;;19.28;80.06;93746.94;5063437;28;20032;-82
2023/07/03 05:19:13;;;;;;;22.40;14.98;;;;;;;19.40;78.72;93749.38;5063908;28;20036;-82
2023/07/03 05:21:38;;;;;;;21.48;13.35;;;;;;;19.31;79.18;93746.19;5063807;28;20199;-82
2023/07/03 05:24:04;;;;;;;19.83;14.10;;;;;;;19.31;78.77;93748.88;5063664;28;20060;-82
2023/07/03 05:26:30;;;;;;;19.50;13.85;;;;;;;19.38;79.34;93743.56;5063585;28;20096;-83
2023/07/03 05:28:55;;;;;;;19.55;13.48;;;;;;;19.40;78.79;93751.31;5063291;28;20021;-81
2023/07/03 05:31:23;;;;;;;19.70;14.20;;;;;;;19.45;78.41;93756.34;5063421;28;20214;-81
2023/07/03 05:33:49;;;;;;;19.63;14.50;;;;;;;19.49;77.97;93761.81;5063358;28;20040;-81
2023/07/03 05:36:14;;;;;;;22.30;14.75;;;;;;;19.49;79.25;93767.97;5062025;28;20025;-81
2023/07/03 05:38:40;;;;;;;21.20;14.63;;;;;;;19.58;79.43;93767.66;5063428;28;20025;-80
2023/07/03 05:41:05;;;;;;;20.02;13.73;;;;;;;19.60;79.26;93760.75;5063231;28;20021;-81
2023/07/03 05:43:31;;;;;;;20.00;13.85;;;;;;;19.67;77.35;93773.56;5063121;28;20025;-81
2023/07/03 05:45:56;;;;;;;24.98;14.10;;;;;;;19.63;77.42;93768.13;5063009;28;20318;-81
2023/07/03 05:48:23;;;;;;;17.80;12.75;;;;;;;19.65;76.61;93765.03;5063081;28;20025;-81
2023/07/03 05:50:48;;;;;;;20.27;13.73;;;;;;;19.67;77.79;93762.75;5063052;28;20063;-76
2023/07/03 05:53:14;;;;;;;20.50;14.15;;;;;;;19.71;77.54;93774.41;5062901;28;20020;-75
2023/07/03 05:55:39;;;;;;;19.10;13.95;;;;;;;19.67;77.89;93765.44;5062806;28;20027;-76
2023/07/03 05:58:05;;;;;;;28.92;15.13;;;;;;;19.77;78.42;93764.03;5065154;28;20021;-75
2023/07/03 06:00:31;;;;;;;19.08;14.60;;;;;;;19.82;78.53;93777.97;5066918;28;20039;-76
2023/07/03 06:02:57;;;;;;;20.92;13.40;;;;;;;19.89;78.81;93771.09;5066736;28;20033;-77
2023/07/03 06:05:22;;;;;;;19.73;13.02;;;;;;;19.98;76.96;93774.22;5066889;28;20032;-77
2023/07/03 06:07:49;;;;;;;20.70;14.15;;;;;;;19.95;77.66;93772.28;5066807;28;20115;-77
2023/07/03 06:10:14;;;;;;;21.23;13.88;;;;;;;19.99;77.09;93763.03;5064939;28;20062;-76
2023/07/03 06:12:41;;;;;;;22.45;14.68;;;;;;;20.21;77.86;93774.81;5066355;28;20013;-81
2023/07/03 06:15:07;;;;;;;18.85;13.23;;;;;;;20.22;75.48;93762.81;5066259;28;20017;-76
2023/07/03 06:17:33;;;;;;;20.27;13.93;;;;;;;20.24;76.62;93771.34;5066172;28;20214;-76
2023/07/03 06:19:58;;;;;;;21.48;13.15;;;;;;;20.36;75.12;93766.78;5066315;28;20027;-76
2023/07/03 06:22:24;;;;;;;17.58;12.85;;;;;;;20.28;75.19;93765.19;5066217;28;20096;-76
2023/07/03 06:24:50;;;;;;;15.93;11.50;;;;;;;20.33;75.05;93770.22;5066309;28;20025;-76
2023/07/03 06:27:15;;;;;;;17.88;12.70;;;;;;;20.37;74.67;93771.03;5065967;28;20033;-76
2023/07/03 06:29:41;;;;;;;20.95;13.43;;;;;;;20.35;74.77;93763.31;5066115;28;20032;-75
2023/07/03 06:32:10;;;;;;;25.88;12.40;;;;;;;20.45;73.17;93775.31;5066120;28;20303;-76
2023/07/03 06:34:36;;;;;;;19.55;12.15;;;;;;;20.43;74.23;93764.91;5065867;28;20025;-74
2023/07/03 06:37:05;;;;;;;29.58;12.88;;;;;;;20.54;74.22;93769.59;5065794;28;20307;-75
2023/07/03 06:39:33;;;;;;;19.95;13.10;;;;;;;20.62;73.70;93780.09;5064584;28;20025;-79
2023/07/03 06:41:59;;;;;;;20.65;12.55;;;;;;;20.49;74.49;93762.59;5065914;28;20111;-78
2023/07/03 06:44:24;;;;;;;21.08;12.20;;;;;;;20.64;76.07;93777.78;5065504;28;20055;-77
2023/07/03 06:46:50;;;;;;;18.60;13.27;;;;;;;20.69;74.27;93770.47;5065605;28;20021;-80
2023/07/03 06:49:17;;;;;;;22.90;13.80;;;;;;;20.74;74.74;93772.81;5065772;28;20031;-80
2023/07/03 06:51:42;;;;;;;17.10;13.30;;;;;;;20.74;74.06;93768.19;5065648;28;20267;-84
2023/07/03 06:54:08;;;;;;;22.15;13.63;;;;;;;20.86;75.30;93775.19;5065942;28;20036;-74
2023/07/03 06:56:33;;;;;;;18.13;12.75;;;;;;;20.98;75.31;93777.56;5065335;28;20028;-78
2023/07/03 06:58:59;;;;;;;18.65;13.00;;;;;;;21.09;74.68;93776.84;5065551;28;20088;-76
2023/07/03 07:01:28;;;;;;;18.65;12.65;;;;;;;21.19;73.54;93782.28;5065331;28;20076;-74
2023/07/03 07:03:54;;;;;;;20.73;12.50;;;;;;;21.29;72.89;93771.84;5065230;28;20025;-74
2023/07/03 07:06:22;;;;;;;18.52;12.00;;;;;;;21.39;72.21;93774.63;5065498;28;20027;-75
2023/07/03 07:08:48;;;;;;;18.30;12.90;;;;;;;21.44;71.77;93776.19;5064560;28;20048;-74
2023/07/03 07:11:20;;;;;;;16.40;12.65;;;;;;;21.48;70.99;93776.97;5064982;28;20021;-73
2023/07/03 07:13:47;;;;;;;18.83;11.95;;;;;;;21.59;71.78;93771.56;5064942;28;20031;-75
2023/07/03 07:16:19;;;;;;;19.98;11.52;;;;;;;21.71;70.57;93784.00;5065225;28;20335;-75
2023/07/03 07:18:51;;;;;;;20.95;12.20;;;;;;;21.78;70.91;93771.22;5065287;28;20091;-74
2023/07/03 07:21:17;;;;;;;14.93;12.05;;;;;;;21.83;70.91;93770.81;5064995;28;20017;-75
2023/07/03 07:23:49;;;;;;;17.08;11.57;;;;;;;21.88;70.38;93777.81;5065362;28;20358;-77
2023/07/03 07:26:14;;;;;;;18.85;10.48;;;;;;;21.93;69.00;93779.38;5065172;28;20025;-76
2023/07/03 07:28:40;;;;;;;14.05;9.77;;;;;;;21.98;66.82;93781.69;5064965;28;20314;-77
2023/07/03 07:31:05;;;;;;;14.10;9.90;;;;;;;22.02;65.27;93777.81;5064949;28;20021;-76
2023/07/03 07:33:30;;;;;;;16.63;9.65;;;;;;;22.05;65.85;93778.97;5065217;28;20055;-77
2023/07/03 07:35:56;;;;;;;15.32;10.48;;;;;;;22.09;65.63;93782.47;5065025;28;20382;-78
2023/07/03 07:38:22;;;;;;;21.60;10.63;;;;;;;22.16;69.15;93782.44;5064820;28;20021;-77
2023/07/03 07:40:48;;;;;;;14.95;10.10;;;;;;;22.18;65.65;93782.06;5063613;28;20232;-77
2023/07/03 07:43:14;;;;;;;19.10;10.98;;;;;;;22.21;67.70;93789.44;5064896;28;20068;-77
2023/07/03 07:45:39;;;;;;;16.20;10.00;;;;;;;22.26;65.65;93791.78;5064715;28;20029;-76
2023/07/03 07:48:05;;;;;;;12.55;9.15;;;;;;;22.37;65.05;93794.50;5064313;28;20036;-79
2023/07/03 07:50:35;;;;;;;17.08;9.18;;;;;;;22.40;63.81;93796.44;5064557;28;20095;-76
2023/07/03 07:53:02;;;;;;;14.77;9.55;;;;;;;22.50;64.69;93792.16;5064443;28;20074;-76
2023/07/03 07:55:28;;;;;;;22.58;10.38;;;;;;;22.67;63.99;93793.28;5064301;28;20028;-77
2023/07/03 07:57:53;;;;;;;14.45;9.85;;;;;;;22.79;63.89;93798.28;5064612;28;20021;-77
2023/07/03 08:00:20;;;;;;;13.25;9.07;;;;;;;22.89;63.63;93802.94;5064622;28;20055;-77
2023/07/03 08:02:45;;;;;;;14.73;10.55;;;;;;;22.97;63.58;93796.31;5064225;28;20070;-77
2023/07/03 08:05:11;;;;;;;20.20;9.55;;;;;;;23.01;63.43;93810.69;5064322;28;20284;-77
2023/07/03 08:07:36;;;;;;;14.90;9.20;;;;;;;22.97;62.57;93804.44;5064143;28;20025;-78
2023/07/03 08:10:02;;;;;;;11.68;8.50;;;;;;;23.04;63.95;93801.00;5063211;28;20032;-78
2023/07/03 08:12:28;;;;;;;15.68;9.45;;;;;;;23.05;62.00;93816.13;5064212;28;20024;-78
2023/07/03 08:14:53;;;;;;;15.65;9.45;;;;;;;23.08;63.02;93817.25;5063153;28;20028;-78
2023/07/03 08:17:19;;;;;;;18.98;8.35;;;;;;;23.09;62.27;93816.09;5064391;28;20067;-79
2023/07/03 08:19:44;;;;;;;11.57;8.05;;;;;;;23.02;62.17;93819.63;5064234;28;20112;-79
2023/07/03 08:22:10;;;;;;;15.70;8.82;;;;;;;22.99;62.41;93813.00;5062763;28;20020;-77
2023/07/03 08:24:35;;;;;;;18.13;8.65;;;;;;;23.07;60.67;93811.06;5064015;28;20319;-76
2023/07/03 08:27:01;;;;;;;13.90;8.30;;;;;;;23.12;59.58;93818.03;5063883;28;20255;-78
2023/07/03 08:29:26;;;;;;;11.57;7.72;;;;;;;23.21;60.00;93811.00;5063987;28;20024;-76
2023/07/03 08:31:51;;;;;;;11.30;7.85;;;;;;;23.40;61.98;93807.03;5062941;28;20024;-77
2023/07/03 08:34:17;;;;;;;13.05;7.82;;;;;;;23.61;59.82;93821.69;5063635;28;20088;-76
2023/07/03 08:36:42;;;;;;;10.38;6.88;;;;;;;23.60;58.99;93820.16;5063820;28;20289;-77
2023/07/03 08:39:08;;;;;;;12.23;7.63;;;;;;;23.48;57.69;93817.88;5063651;28;20184;-76
2023/07/03 08:42:01;;;;;;;11.65;7.30;;;;;;;23.56;58.69;93816.69;5063701;28;20091;-79
2023/07/03 08:44:28;;;;;;;15.02;7.82;;;;;;;23.54;58.82;93814.34;5063798;28;20032;-77
2023/07/03 08:46:57;;;;;;;10.23;6.65;;;;;;;23.50;57.37;93819.03;5063628;28;20020;-76
2023/07/03 08:49:23;;;;;;;9.65;6.43;;;;;;;23.59;57.84;93819.38;5062360;28;20029;-77
2023/07/03 08:51:52;;;;;;;9.75;7.22;;;;;;;23.67;58.70;93820.13;5063548;28;20040;-76
2023/07/03 08:54:27;;;;;;;14.23;7.88;;;;;;;23.82;57.17;93826.28;5063314;28;20100;-76
2023/07/03 08:56:54;;;;;;;10.40;7.18;;;;;;;23.93;55.83;93820.75;5063366;28;20131;-76
2023/07/03 08:59:20;;;;;;;14.15;7.05;;;;;;;24.11;56.32;93813.25;5063444;28;20017;-76
2023/07/03 09:02:11;;;;;;;10.95;6.32;;;;;;;24.27;55.20;93806.53;5063272;28;20093;-77
2023/07/03 09:04:49;;;;;;;9.18;6.70;;;;;;;24.35;53.57;93821.63;5063274;28;20037;-75
2023/07/03 09:07:32;;;;;;;15.27;6.90;;;;;;;24.41;53.67;93826.22;5063164;28;20094;-75
2023/07/03 09:10:06;;;;;;;11.98;7.05;;;;;;;24.57;53.31;93823.00;5063176;28;20214;-75
2023/07/03 09:12:39;;;;;;;11.52;7.07;;;;;;;24.67;54.56;93813.19;5063097;28;20021;-75
2023/07/03 09:15:07;;;;;;;10.77;6.70;;;;;;;24.72;54.06;93809.25;5062890;28;20071;-75
2023/07/03 09:17:34;;;;;;;11.18;7.00;;;;;;;24.70;52.18;93820.56;5063166;28;20021;-74
2023/07/03 09:20:01;;;;;;;14.55;7.75;;;;;;;24.57;53.34;93824.97;5063156;28;20017;-74
2023/07/03 09:22:37;;;;;;;12.60;7.68;;;;;;;24.49;56.27;93820.72;5062835;28;20020;-78
2023/07/03 09:25:06;;;;;;;11.07;6.75;;;;;;;24.44;55.98;93813.75;5062831;28;20054;-71
2023/07/03 09:27:31;;;;;;;12.25;7.47;;;;;;;24.31;54.91;93824.38;5062809;28;20078;-71
2023/07/03 09:30:04;;;;;;;10.23;7.00;;;;;;;24.38;52.60;93818.09;5062749;28;20021;-71
2023/07/03 09:32:31;;;;;;;11.88;7.20;;;;;;;24.58;54.60;93821.81;5062382;28;20037;-71
2023/07/03 09:35:19;;;;;;;10.32;6.88;;;;;;;24.61;50.76;93821.03;5062775;28;20021;-70
2023/07/03 09:37:58;;;;;;;10.15;6.72;;;;;;;24.56;51.90;93824.19;5062826;28;20040;-70
2023/07/03 09:40:37;;;;;;;11.48;7.05;;;;;;;24.59;50.61;93825.34;5062710;28;20036;-70
2023/07/03 09:43:10;;;;;;;12.57;7.10;;;;;;;24.56;50.37;93816.00;5062677;28;20025;-73
2023/07/03 09:45:36;;;;;;;13.82;7.55;;;;;;;24.65;52.35;93822.94;5062150;28;20024;-72
2023/07/03 09:48:09;;;;;;;13.43;7.28;;;;;;;24.80;52.86;93824.34;5062263;28;20027;-72
2023/07/03 09:50:37;;;;;;;12.38;7.30;;;;;;;24.91;52.73;93818.78;5061351;28;20040;-72
2023/07/03 09:53:05;;;;;;;10.88;6.95;;;;;;;24.94;52.27;93821.47;5062533;28;20227;-72
2023/07/03 09:55:31;;;;;;;13.85;6.85;;;;;;;24.91;52.13;93816.06;5062652;28;20029;-72
2023/07/03 09:57:57;;;;;;;10.38;6.43;;;;;;;24.85;51.68;93820.41;5062224;28;20318;-72
2023/07/03 10:00:25;;;;;;;8.63;5.70;;;;;;;25.00;51.75;93813.63;5061720;28;20062;-72
2023/07/03 10:02:57;;;;;;;10.98;6.72;;;;;;;25.08;50.46;93814.34;5062473;28;20028;-72
2023/07/03 10:05:32;;;;;;;10.38;6.53;;;;;;;25.06;50.61;93814.75;5062536;28;20021;-72
2023/07/03 10:08:06;;;;;;;16.20;6.72;;;;;;;25.17;50.25;93809.16;5061356;28;20058;-71
2023/07/03 10:10:34;;;;;;;12.23;6.18;;;;;;;25.22;47.77;93806.03;5060390;28;20028;-73
2023/07/03 10:13:11;;;;;;;9.45;6.93;;;;;;;25.32;48.99;93804.31;5060389;28;20025;-73
2023/07/03 10:15:41;;;;;;;10.00;6.35;;;;;;;25.57;48.11;93807.50;5060723;28;20322;-72
2023/07/03 10:18:31;;;;;;;13.75;5.80;;;;;;;25.85;49.23;93804.78;5060430;28;20345;-73
2023/07/03 10:20:58;;;;;;;10.02;6.25;;;;;;;26.16;46.55;93814.50;5060186;28;20025;-72
2023/07/03 10:23:28;;;;;;;9.30;6.32;;;;;;;26.36;46.40;93805.63;5061469;28;20051;-73
2023/07/03 10:25:58;;;;;;;12.65;6.60;;;;;;;26.54;44.55;93800.63;5062312;28;20025;-73
2023/07/03 10:28:33;;;;;;;12.50;6.88;;;;;;;26.55;45.15;93802.16;5062141;28;20044;-73
2023/07/03 10:31:04;;;;;;;11.98;6.60;;;;;;;26.48;48.73;93801.50;5062476;28;20262;-73
2023/07/03 10:33:37;;;;;;;15.35;6.65;;;;;;;26.27;48.16;93802.63;5062171;28;20101;-73
2023/07/03 10:36:09;;;;;;;11.15;6.53;;;;;;;26.13;49.25;93798.16;5062079;28;20036;-72
2023/07/03 10:38:46;;;;;;;9.40;6.63;;;;;;;25.94;49.96;93800.41;5062097;28;20029;-73
2023/07/03 10:41:33;;;;;;;12.60;7.05;;;;;;;25.91;47.45;93793.06;5061984;28;20102;-72
2023/07/03 10:44:11;;;;;;;10.95;6.32;;;;;;;25.90;46.82;93794.22;5062652;28;20074;-72
2023/07/03 10:47:06;;;;;;;8.10;5.63;;;;;;;25.83;48.80;93792.34;5065689;28;20031;-72
2023/07/03 10:49:35;;;;;;;9.30;6.93;;;;;;;25.71;48.48;93792.91;5057792;28;20033;-72
2023/07/03 10:52:15;;;;;;;10.25;6.03;;;;;;;25.66;48.83;93798.81;5065462;28;20041;-72
2023/07/03 10:54:49;;;;;;;9.77;5.65;;;;;;;25.77;47.34;93788.53;5065447;28;20032;-72
2023/07/03 10:57:20;;;;;;;10.25;5.35;;;;;;;25.86;46.88;93793.47;5065678;28;20067;-71
2023/07/03 10:59:52;;;;;;;12.00;6.88;;;;;;;25.88;47.01;93784.88;5065462;28;20032;-72
2023/07/03 11:02:17;;;;;;;;;;;;;;;26.07;48.44;93784.19;5065922;28;20245;-71
2023/07/03 11:05:04;;;;;;;11.68;6.30;;;;;;;26.33;46.93;93784.59;5065398;28;19912;-71
2023/07/03 11:07:57;;;;;;;12.02;6.00;;;;;;;26.56;45.19;93784.59;5065611;28;20229;-72
2023/07/03 11:10:33;;;;;;;11.85;6.30;;;;;;;26.78;45.24;93787.72;5065419;28;20326;-72
2023/07/03 11:13:14;;;;;;;10.85;5.78;;;;;;;26.97;44.09;93786.22;5064063;28;20032;-72
2023/07/03 11:15:55;;;;;;;8.98;5.55;;;;;;;27.09;43.59;93786.75;5065242;28;20043;-72
2023/07/03 11:18:38;;;;;;;20.98;5.82;;;;;;;27.20;42.06;93784.59;5065528;28;20037;-72
2023/07/03 11:21:04;;;;;;;9.13;5.25;;;;;;;27.37;41.09;93786.22;5065074;28;20056;-72
2023/07/03 11:23:37;;;;;;;12.18;5.53;;;;;;;27.58;40.96;93784.25;5065098;28;20036;-72
2023/07/03 11:26:17;;;;;;;7.82;5.53;;;;;;;27.68;39.89;93785.97;5065052;28;20074;-72